Impacts TAF Board INFO
FOR SITUATIONAL AWARENESS. NOT TO BE USED FOR FLIGHT PLANNING PURPOSES.
IDs:

KMEM - Memphis Intl, TN, US

Issued at 2325 UTC 15 Dec 2017
Updated at 0125 UTC 16 Dec 2017
Potential Impact None Slight Moderate High
Time<<16/14Z 16/15Z 16/16Z 16/17Z 16/18Z 16/19Z 16/20Z 16/21Z 16/22Z 16/23Z 17/00Z 17/01Z 17/02Z>>
Type PRVL PRVL PRVL PRVL PRVL PRVL PRVL PRVL PRVL PRVL PRVL PRVL PRVL
VIS >6 >6 >6 >6 >6 >6 >6 >6 >6 >6 >6 >6 >6
CIG -- -- -- -- -- -- -- -- -- -- 200 200 200
Cover SCT SCT SCT SCT SCT SCT SCT SCT SCT SCT BKN BKN BKN
FltCat VFR VFR VFR VFR VFR VFR VFR VFR VFR VFR VFR VFR VFR
WX -- -- -- -- -- -- -- -- -- -- -- -- --
WDir 190 190 190 200 200 200 200 200 200 200 180 180 180
WSpd 7 7 7 10 10 10 10 10 10 10 6 6 6
WGst -- -- -- 16 16 16 16 16 16 16 -- -- --

Raw TAF
KMEM 152325Z 1600/1706 20005KT P6SM FEW250
  FM161400 19007KT P6SM SCT250
  FM161700 20010G16KT P6SM SCT250
  FM170000 18006KT P6SM BKN200


METAR Board
Radar Display
Forecast Discussion

FOR SITUATIONAL AWARENESS. NOT TO BE USED FOR FLIGHT PLANNING PURPOSES.